Strona główna
METAR-TAF:

METAR-TAF

Lotnisko :

Port lotniczy Wyspy Kokosowe

Wyspy Kokosowe, Australia

Szerokość geograficzna: 12-11S, Długość geograficzna: 096-49E, wysokość: 3 m

Aktualna obserwacja pogody

Raport powstał 30 minut temu, godzina 09:05 UTC
Wiatr 22 kt od wschód
Temperatura 28°C
Wilgotność 84%
Ciśnienie 1011 hPa
Widzialność 10 km lub więcej
Rozproszone chmury na wysokości 1600 ft
Przerywane chmury na wysokości 2000 ft
Przerywane chmury na wysokości 3000 ft

METAR: YPCC 040905Z AUTO 08022KT 9999 // SCT016 BKN020 BKN030 28/25 Q1011

czas: 16:05 (09:35 UTC)

Prognoza

Raport powstał 4 godziny i 6 minut temu, godzina 05:29 UTC
Prognoza ważna od 04 godzina 06 UTC do 05 godzina 06 UTC
Wiatr 12 kt od wschodnio-południowy wschód
Widzialność 10 km lub więcej
Rozproszone chmury na wysokości 1400 ft

TAF: YPCC 040529Z 0406/0506 11012KT 9999 SCT014

Obserwacja i prognoza pogody dla ponad 4000 lotnisk (raport METAR i TAF).

Dostępne stacje oznaczono żółtymi i czerwonymi punktami na mapie.

Najedź kursorem aby zobaczyć nazwę stacji.

Kliknij aby zobaczyć obserwacje i prognozy pogody.

Aby zmienić mapę: kliknij na zielony przycisk z czarnym krzyżykiem, aby powiększyć; na zielony przycisk z myślnikiem, aby pomniejszyć; na zielone strzałki, aby przejść do map sąsiednich.


METAR-TAF: